Time;durP1;ratioP1;P1;durP2;ratioP2;P2;SDS_P1;SDS_P2;PMS_P1;PMS_P2;Temp;Humidity;BMP_temperature;BMP_pressure;BME280_temperature;BME280_humidity;BME280_pressure;Samples;Min_cycle;Max_cycle;Signal;HPM_P1;HPM_P2
2021/03/19 00:02:28;;;;;;;23.33;10.98;;;3.70;95.70;;;;;;6239441;28;20104;-83
2021/03/19 00:05:30;;;;;;;11.33;9.83;;;3.80;96.10;;;;;;6236471;28;20054;-81
2021/03/19 00:08:31;;;;;;;18.77;10.20;;;3.70;96.20;;;;;;6240355;28;20054;-82
2021/03/19 00:11:33;;;;;;;18.27;11.27;;;3.70;96.80;;;;;;6240419;28;20069;-79
2021/03/19 00:14:34;;;;;;;19.57;12.67;;;3.60;97.10;;;;;;6239159;28;20050;-81
2021/03/19 00:17:37;;;;;;;18.00;10.50;;;3.50;97.20;;;;;;6237990;28;20049;-82
2021/03/19 00:20:40;;;;;;;16.07;11.33;;;3.50;97.60;;;;;;6238352;28;20121;-82
2021/03/19 00:23:41;;;;;;;18.93;11.73;;;3.40;97.60;;;;;;6236912;28;20085;-82
2021/03/19 00:26:42;;;;;;;20.13;12.20;;;3.30;97.80;;;;;;6237181;28;20054;-83
2021/03/19 00:29:44;;;;;;;18.90;12.23;;;3.40;98.00;;;;;;6237673;28;20113;-82
2021/03/19 00:32:46;;;;;;;17.77;11.43;;;3.30;98.40;;;;;;6238616;28;20116;-83
2021/03/19 00:35:48;;;;;;;17.67;12.50;;;3.00;98.50;;;;;;6238885;28;20049;-82
2021/03/19 00:38:49;;;;;;;25.63;14.07;;;3.20;98.80;;;;;;6239227;28;20061;-82
2021/03/19 00:41:51;;;;;;;16.73;12.53;;;3.70;99.00;;;;;;6237747;28;20045;-82
2021/03/19 00:44:53;;;;;;;22.77;14.80;;;3.10;99.20;;;;;;6238930;28;20128;-83
2021/03/19 00:47:55;;;;;;;27.60;16.20;;;4.10;99.90;;;;;;6235631;28;20577;-82
2021/03/19 00:50:57;;;;;;;31.10;15.70;;;3.00;99.40;;;;;;6235889;28;20050;-81
2021/03/19 00:53:58;;;;;;;26.50;16.10;;;2.90;99.60;;;;;;6235364;28;20046;-82
2021/03/19 00:56:59;;;;;;;25.53;18.40;;;2.90;99.80;;;;;;6236356;28;20070;-82
2021/03/19 01:00:01;;;;;;;24.73;15.67;;;2.90;99.90;;;;;;6236115;28;20069;-82
2021/03/19 01:06:32;;;;;;;26.23;18.40;;;2.80;99.90;;;;;;6237886;28;20094;-82
2021/03/19 01:09:37;;;;;;;26.77;19.17;;;2.80;99.90;;;;;;6240152;28;20114;-81
2021/03/19 01:12:39;;;;;;;28.93;18.97;;;2.80;99.90;;;;;;6239930;28;20050;-82
2021/03/19 01:15:47;;;;;;;34.87;20.90;;;2.70;99.90;;;;;;6239884;28;20045;-86
2021/03/19 01:18:49;;;;;;;32.38;20.85;;;2.70;99.90;;;;;;6265763;28;20052;-85
2021/03/19 01:21:50;;;;;;;34.60;20.33;;;2.70;99.90;;;;;;6266805;28;20042;-84
2021/03/19 01:24:52;;;;;;;37.40;22.07;;;2.80;99.90;;;;;;6267314;28;20049;-86
2021/03/19 01:27:53;;;;;;;38.67;23.57;;;2.60;99.90;;;;;;6266150;28;20050;-84
2021/03/19 01:30:54;;;;;;;40.27;25.20;;;2.60;99.90;;;;;;6265158;28;20097;-85
2021/03/19 01:33:57;;;;;;;33.80;23.67;;;2.80;99.90;;;;;;6262927;28;20045;-82
2021/03/19 01:36:58;;;;;;;42.43;25.27;;;2.60;99.90;;;;;;6261156;28;20148;-84
2021/03/19 01:39:59;;;;;;;41.70;25.67;;;2.70;99.90;;;;;;6264541;28;20037;-82
2021/03/19 01:43:02;;;;;;;41.10;27.03;;;2.60;99.90;;;;;;6264144;28;20049;-83
2021/03/19 01:46:41;;;;;;;41.30;26.03;;;2.70;99.90;;;;;;6263280;28;20049;-82
2021/03/19 01:50:20;;;;;;;33.78;20.73;;;2.60;99.90;;;;;;6263143;28;20034;-84
2021/03/19 01:53:59;;;;;;;39.97;26.48;;;2.60;99.90;;;;;;6263952;28;20034;-84
2021/03/19 01:57:38;;;;;;;37.20;22.00;;;2.60;99.90;;;;;;6266257;28;20057;-83
2021/03/19 02:01:16;;;;;;;43.47;27.40;;;2.60;99.90;;;;;;6263731;28;20113;-82
2021/03/19 02:04:51;;;;;;;44.73;26.63;;;2.60;99.90;;;;;;6263994;28;20042;-83
2021/03/19 02:08:29;;;;;;;47.40;27.83;;;2.60;99.90;;;;;;6223396;28;20057;-83
2021/03/19 02:12:08;;;;;;;38.30;27.13;;;2.60;99.90;;;;;;6268104;28;20053;-80
2021/03/19 02:15:47;;;;;;;34.13;22.02;;;2.50;99.90;;;;;;6268958;28;20061;-82
2021/03/19 02:19:26;;;;;;;45.13;27.33;;;2.50;99.90;;;;;;6260335;28;20072;-83
2021/03/19 02:23:04;;;;;;;36.22;23.17;;;2.50;99.90;;;;;;6258182;28;20129;-83
2021/03/19 02:26:43;;;;;;;44.83;25.97;;;2.50;99.90;;;;;;6257414;28;20046;-82
2021/03/19 02:30:22;;;;;;;51.58;30.80;;;2.50;99.90;;;;;;6261263;28;20065;-84
2021/03/19 02:33:25;;;;;;;50.95;31.92;;;2.50;99.90;;;;;;6273600;28;20060;-81
2021/03/19 02:36:29;;;;;;;51.80;29.37;;;2.60;99.90;;;;;;6267842;28;20045;-80
2021/03/19 02:39:31;;;;;;;46.23;28.30;;;2.60;99.90;;;;;;6270074;28;20076;-81
2021/03/19 02:42:41;;;;;;;53.37;31.27;;;2.60;99.90;;;;;;6273824;28;20053;-81
2021/03/19 02:45:43;;;;;;;46.80;30.50;;;2.60;99.90;;;;;;6267865;28;20116;-80
2021/03/19 02:48:46;;;;;;;50.70;29.70;;;2.90;99.90;;;;;;6263790;28;20068;-83
2021/03/19 02:51:52;;;;;;;52.13;30.57;;;2.60;99.90;;;;;;6257343;28;20052;-82
2021/03/19 02:54:53;;;;;;;54.90;31.00;;;2.60;99.90;;;;;;6256922;28;20418;-81
2021/03/19 02:57:55;;;;;;;51.80;30.80;;;2.60;99.90;;;;;;6258682;28;20049;-82
2021/03/19 03:01:00;;;;;;;49.23;28.10;;;2.60;99.90;;;;;;6210154;28;20054;-83
2021/03/19 03:04:41;;;;;;;50.63;31.73;;;2.60;99.90;;;;;;6215182;28;20053;-85
2021/03/19 03:07:43;;;;;;;49.87;32.77;;;2.60;99.90;;;;;;6211837;28;20058;-83
2021/03/19 03:10:49;;;;;;;48.40;30.93;;;2.60;99.90;;;;;;6213342;28;20138;-82
2021/03/19 03:13:54;;;;;;;53.27;31.43;;;2.60;99.90;;;;;;6215083;28;20115;-82
2021/03/19 03:16:58;;;;;;;51.10;32.93;;;2.60;99.90;;;;;;6230475;28;20034;-82
2021/03/19 03:20:00;;;;;;;50.03;32.10;;;2.70;99.90;;;;;;6229535;28;20040;-83
2021/03/19 03:23:02;;;;;;;58.53;33.07;;;2.90;99.90;;;;;;6229729;28;20034;-84
2021/03/19 03:26:03;;;;;;;54.63;33.07;;;2.70;99.90;;;;;;6229449;28;20046;-83
2021/03/19 03:29:06;;;;;;;54.67;32.60;;;2.70;99.90;;;;;;6229842;28;20054;-82
2021/03/19 03:32:07;;;;;;;59.07;29.80;;;2.70;99.90;;;;;;6228628;28;20039;-80
2021/03/19 03:35:11;;;;;;;68.53;33.53;;;2.70;99.90;;;;;;6215317;28;20081;-82
2021/03/19 03:38:16;;;;;;;55.70;34.57;;;2.70;99.90;;;;;;6204799;28;20051;-80
2021/03/19 03:41:20;;;;;;;61.97;35.37;;;2.70;99.90;;;;;;6205244;28;20092;-80
2021/03/19 03:44:22;;;;;;;59.80;34.33;;;2.80;99.90;;;;;;6205094;28;20104;-81
2021/03/19 03:47:23;;;;;;;55.93;32.97;;;2.80;99.90;;;;;;6204495;28;20065;-81
2021/03/19 03:50:31;;;;;;;55.43;31.50;;;2.70;99.90;;;;;;6205189;28;20058;-81
2021/03/19 03:53:32;;;;;;;48.60;29.50;;;2.80;99.90;;;;;;6204244;28;20175;-80
2021/03/19 03:56:34;;;;;;;51.77;30.27;;;2.80;99.90;;;;;;6203682;28;20146;-82
2021/03/19 03:59:35;;;;;;;59.63;33.63;;;2.80;99.90;;;;;;6203220;28;20081;-81
2021/03/19 04:02:37;;;;;;;52.17;29.80;;;2.80;99.90;;;;;;6204420;28;20077;-80
2021/03/19 04:05:41;;;;;;;50.70;29.40;;;2.80;99.90;;;;;;6203489;28;20073;-81
2021/03/19 04:08:43;;;;;;;49.60;28.90;;;2.80;99.90;;;;;;6205128;28;20048;-81
2021/03/19 04:11:44;;;;;;;53.23;29.50;;;2.80;99.90;;;;;;6204978;28;20174;-81
2021/03/19 04:14:45;;;;;;;53.63;31.40;;;2.80;99.90;;;;;;6203622;28;20073;-80
2021/03/19 04:17:47;;;;;;;54.93;31.63;;;2.80;99.90;;;;;;6206443;28;20138;-80
2021/03/19 04:20:51;;;;;;;57.33;31.60;;;2.80;99.90;;;;;;6207887;28;20053;-81
2021/03/19 04:23:53;;;;;;;43.63;28.27;;;2.80;99.90;;;;;;6207351;28;20747;-82
2021/03/19 04:26:54;;;;;;;48.23;29.50;;;2.80;99.90;;;;;;6206976;28;20081;-82
2021/03/19 04:29:57;;;;;;;47.77;29.13;;;2.80;99.90;;;;;;6206712;28;20535;-81
2021/03/19 04:33:00;;;;;;;49.57;30.50;;;3.00;99.90;;;;;;6206801;28;20389;-80
2021/03/19 04:36:18;;;;;;;47.37;31.37;;;2.90;99.90;;;;;;6206247;28;20070;-81
2021/03/19 04:39:23;;;;;;;59.83;33.07;;;2.90;99.90;;;;;;6206502;28;20051;-80
2021/03/19 04:42:24;;;;;;;51.23;33.47;;;2.90;99.90;;;;;;6206651;28;20046;-82
2021/03/19 04:45:26;;;;;;;51.90;31.50;;;2.90;99.90;;;;;;6205933;28;20046;-81
2021/03/19 04:48:28;;;;;;;45.20;29.43;;;2.90;99.90;;;;;;6206595;28;20054;-79
2021/03/19 04:51:30;;;;;;;51.53;30.27;;;2.90;99.90;;;;;;6206204;28;20512;-81
2021/03/19 04:54:31;;;;;;;47.93;28.80;;;2.90;99.90;;;;;;6206194;28;20050;-80
2021/03/19 04:57:33;;;;;;;50.07;32.63;;;2.90;99.90;;;;;;6206185;28;20133;-81
2021/03/19 05:00:34;;;;;;;49.40;27.87;;;2.90;99.90;;;;;;6206829;28;20085;-82
2021/03/19 05:03:35;;;;;;;45.83;30.93;;;2.90;99.90;;;;;;6211278;28;20129;-81
2021/03/19 05:06:38;;;;;;;46.83;29.93;;;2.90;99.90;;;;;;6213765;28;20101;-81
2021/03/19 05:09:39;;;;;;;48.87;28.97;;;2.90;99.90;;;;;;6213991;28;20616;-81
2021/03/19 05:12:41;;;;;;;50.80;31.30;;;2.80;99.90;;;;;;6214812;28;20046;-81
2021/03/19 05:15:42;;;;;;;51.63;30.37;;;2.90;99.90;;;;;;6213092;28;20050;-81
2021/03/19 05:18:44;;;;;;;53.27;31.87;;;2.90;99.90;;;;;;6214305;28;20053;-81
2021/03/19 05:21:47;;;;;;;47.13;30.20;;;2.90;99.90;;;;;;6214462;28;20046;-81
2021/03/19 05:24:48;;;;;;;52.63;32.17;;;2.90;99.90;;;;;;6213930;28;20050;-82
2021/03/19 05:27:52;;;;;;;53.13;33.00;;;3.00;99.90;;;;;;6214488;28;20417;-80
2021/03/19 05:30:53;;;;;;;52.17;31.83;;;2.90;99.90;;;;;;6214258;28;20121;-82
2021/03/19 05:33:55;;;;;;;52.00;31.67;;;2.90;99.90;;;;;;6212618;28;20050;-82
2021/03/19 05:36:57;;;;;;;48.93;29.20;;;2.90;99.90;;;;;;6215503;28;20078;-82
2021/03/19 05:39:59;;;;;;;46.03;29.93;;;2.90;99.90;;;;;;6216220;28;20050;-81
2021/03/19 05:43:24;;;;;;;47.33;29.27;;;3.00;99.90;;;;;;6217516;28;20065;-82
2021/03/19 05:46:31;;;;;;;47.33;29.03;;;3.00;99.90;;;;;;6224169;28;20097;-80
2021/03/19 05:49:34;;;;;;;48.00;30.80;;;3.00;99.90;;;;;;6214961;28;20054;-81
2021/03/19 05:52:36;;;;;;;55.53;31.77;;;3.00;99.90;;;;;;6214217;28;20096;-81
2021/03/19 05:55:40;;;;;;;45.53;30.43;;;3.00;99.90;;;;;;6212403;28;20046;-82
2021/03/19 05:58:42;;;;;;;42.87;26.90;;;3.00;99.90;;;;;;6213507;28;20042;-81
2021/03/19 06:01:44;;;;;;;44.10;28.83;;;3.10;99.90;;;;;;6214604;28;20057;-83
2021/03/19 06:04:45;;;;;;;46.33;29.80;;;3.00;99.90;;;;;;6212927;28;20124;-82
2021/03/19 06:07:50;;;;;;;50.90;31.63;;;3.00;99.90;;;;;;6210738;28;20420;-83
2021/03/19 06:11:05;;;;;;;48.13;28.70;;;3.10;99.90;;;;;;6215251;28;20106;-83
2021/03/19 06:14:16;;;;;;;56.63;31.90;;;3.10;99.90;;;;;;6215982;28;20070;-81
2021/03/19 06:17:26;;;;;;;58.50;32.17;;;3.10;99.90;;;;;;6216351;28;20054;-82
2021/03/19 06:20:29;;;;;;;57.70;35.37;;;3.20;99.90;;;;;;6215559;28;20089;-80
2021/03/19 06:23:33;;;;;;;53.87;34.77;;;3.30;99.90;;;;;;6223105;28;20100;-81
2021/03/19 06:26:37;;;;;;;54.90;32.07;;;3.40;99.90;;;;;;6212226;28;20074;-80
2021/03/19 06:29:45;;;;;;;53.43;30.10;;;3.50;99.90;;;;;;6209869;28;20543;-83
2021/03/19 06:33:01;;;;;;;52.78;28.77;;;3.50;99.90;;;;;;6212761;28;20050;-81
2021/03/19 06:36:13;;;;;;;48.30;30.00;;;3.60;99.90;;;;;;6212326;28;20078;-82
2021/03/19 06:39:21;;;;;;;46.27;29.70;;;3.80;99.90;;;;;;6211717;28;20054;-81
2021/03/19 06:42:33;;;;;;;51.23;31.53;;;3.60;99.90;;;;;;6210959;28;20540;-81
2021/03/19 06:45:34;;;;;;;49.30;30.10;;;3.60;99.90;;;;;;6209523;28;20058;-81
2021/03/19 06:48:38;;;;;;;43.83;29.43;;;3.60;99.90;;;;;;6208249;28;20476;-83
2021/03/19 06:51:41;;;;;;;43.50;28.03;;;3.60;99.90;;;;;;6208907;28;20046;-81
2021/03/19 06:54:49;;;;;;;38.97;26.07;;;3.60;99.90;;;;;;6209613;28;20126;-83
2021/03/19 06:57:50;;;;;;;43.67;26.13;;;3.60;99.90;;;;;;6210463;28;20046;-83
2021/03/19 07:00:54;;;;;;;44.37;29.23;;;3.60;99.90;;;;;;6208972;28;20159;-82
2021/03/19 07:04:23;;;;;;;34.87;24.10;;;3.60;99.90;;;;;;6207716;28;20068;-82
2021/03/19 07:07:50;;;;;;;39.70;24.00;;;3.60;99.90;;;;;;6228036;28;20050;-80
2021/03/19 07:11:04;;;;;;;36.57;23.50;;;3.50;99.90;;;;;;6235732;28;20041;-82
2021/03/19 07:14:39;;;;;;;37.13;22.43;;;3.50;99.90;;;;;;6231783;28;20061;-83
2021/03/19 07:17:56;;;;;;;38.17;25.30;;;3.50;99.90;;;;;;6199744;28;20104;-81
2021/03/19 07:21:28;;;;;;;37.73;24.73;;;3.50;99.90;;;;;;6234024;28;20089;-82
2021/03/19 07:24:49;;;;;;;42.07;23.97;;;3.60;99.90;;;;;;6195949;28;20109;-82
2021/03/19 07:28:13;;;;;;;41.50;23.80;;;3.60;99.90;;;;;;6208246;28;20046;-82
2021/03/19 07:31:41;;;;;;;35.57;19.77;;;3.60;99.90;;;;;;6208849;28;20066;-81
2021/03/19 07:34:53;;;;;;;35.47;21.40;;;3.60;99.90;;;;;;6208690;28;20057;-82
2021/03/19 07:38:28;;;;;;;31.93;21.53;;;3.70;99.90;;;;;;6208983;28;20096;-82
2021/03/19 07:41:42;;;;;;;33.77;17.23;;;3.70;99.90;;;;;;6209551;28;20437;-80
2021/03/19 07:44:51;;;;;;;33.27;18.87;;;3.60;99.90;;;;;;6206340;28;20050;-81
2021/03/19 07:48:16;;;;;;;32.60;18.63;;;3.70;99.90;;;;;;6204634;28;20061;-83
2021/03/19 07:51:25;;;;;;;33.07;19.47;;;3.50;99.90;;;;;;6219913;28;20069;-82
2021/03/19 07:54:39;;;;;;;28.80;16.70;;;3.50;99.90;;;;;;6235798;28;20777;-82
2021/03/19 07:57:48;;;;;;;25.97;16.53;;;3.40;99.90;;;;;;6234484;28;20046;-83
2021/03/19 08:01:09;;;;;;;34.40;18.67;;;3.60;99.90;;;;;;6236524;28;20077;-82
2021/03/19 08:04:24;;;;;;;28.03;17.27;;;3.60;99.90;;;;;;6237700;28;20503;-83
2021/03/19 08:07:33;;;;;;;28.07;16.93;;;3.60;99.90;;;;;;6236696;28;20066;-83
2021/03/19 08:10:51;;;;;;;31.60;17.30;;;3.80;99.90;;;;;;6240561;28;20033;-83
2021/03/19 08:14:06;;;;;;;34.60;18.77;;;3.70;99.90;;;;;;6235166;28;20052;-82
2021/03/19 08:17:22;;;;;;;29.60;16.33;;;3.60;99.90;;;;;;6235157;28;20049;-81
2021/03/19 08:20:36;;;;;;;28.53;17.53;;;3.60;99.90;;;;;;6236849;28;20101;-81
2021/03/19 08:23:49;;;;;;;30.03;18.30;;;3.60;99.90;;;;;;6236066;28;20074;-82
2021/03/19 08:26:58;;;;;;;28.03;17.83;;;3.70;99.90;;;;;;6234630;28;20061;-83
2021/03/19 08:30:05;;;;;;;38.27;21.77;;;3.70;99.90;;;;;;6237045;28;20050;-82
2021/03/19 08:33:16;;;;;;;38.40;22.23;;;3.60;99.90;;;;;;6239060;28;20574;-84
2021/03/19 08:36:26;;;;;;;45.47;22.50;;;3.70;99.90;;;;;;6238671;28;20073;-83
2021/03/19 08:39:34;;;;;;;37.47;22.20;;;3.60;99.90;;;;;;6238357;28;20056;-81
2021/03/19 08:42:39;;;;;;;36.00;20.75;;;3.70;99.90;;;;;;6236329;28;20045;-84
2021/03/19 08:45:40;;;;;;;52.03;22.77;;;3.80;99.90;;;;;;6235659;28;20056;-83
2021/03/19 08:48:53;;;;;;;27.27;16.97;;;3.90;99.90;;;;;;6233970;28;20100;-83
2021/03/19 08:51:56;;;;;;;31.03;19.17;;;3.90;99.90;;;;;;6235428;28;20052;-82
2021/03/19 08:55:24;;;;;;;29.60;19.37;;;3.70;99.90;;;;;;6234692;28;20129;-83
2021/03/19 08:58:50;;;;;;;35.63;22.67;;;3.50;99.90;;;;;;6235627;28;20078;-84
2021/03/19 09:01:54;;;;;;;39.75;20.80;;;3.50;99.90;;;;;;6236089;28;20049;-83
2021/03/19 09:05:29;;;;;;;34.87;22.17;;;3.50;99.90;;;;;;6236461;28;20523;-82
2021/03/19 09:09:14;;;;;;;38.50;21.33;;;3.70;99.90;;;;;;6238811;28;20125;-83
2021/03/19 09:12:24;;;;;;;41.43;22.13;;;3.80;99.90;;;;;;6224727;28;20046;-81
2021/03/19 09:15:29;;;;;;;35.47;22.53;;;3.80;99.90;;;;;;6239052;28;20100;-84
2021/03/19 09:18:43;;;;;;;40.23;23.80;;;3.70;99.90;;;;;;6243609;28;20045;-83
2021/03/19 09:21:45;;;;;;;40.33;26.10;;;3.80;99.90;;;;;;6244989;28;20055;-83
2021/03/19 09:25:36;;;;;;;41.23;25.90;;;3.90;99.90;;;;;;6237849;28;20522;-82
2021/03/19 09:28:58;;;;;;;48.13;27.67;;;3.90;99.90;;;;;;6236797;28;20042;-82
2021/03/19 09:32:36;;;;;;;45.97;24.30;;;4.10;99.90;;;;;;6241924;28;20500;-81
2021/03/19 09:35:40;;;;;;;45.25;25.40;;;4.10;99.90;;;;;;6243422;28;20125;-81
2021/03/19 09:38:42;;;;;;;64.63;44.33;;;4.00;99.90;;;;;;6236379;28;20057;-81
2021/03/19 09:41:51;;;;;;;58.10;39.73;;;4.00;99.90;;;;;;6245493;28;20038;-80
2021/03/19 09:45:18;;;;;;;55.40;34.10;;;4.10;99.90;;;;;;6245969;28;20046;-81
2021/03/19 09:48:28;;;;;;;47.63;26.80;;;4.20;99.90;;;;;;6249058;28;20049;-80
2021/03/19 09:51:34;;;;;;;55.47;31.58;;;4.30;99.90;;;;;;6248744;28;20433;-81
2021/03/19 09:54:38;;;;;;;55.15;31.35;;;4.30;99.90;;;;;;6248388;28;20042;-81
2021/03/19 09:57:39;;;;;;;50.78;28.48;;;4.30;99.90;;;;;;6247754;28;20054;-81
2021/03/19 10:00:47;;;;;;;44.80;28.23;;;4.30;99.90;;;;;;6247388;28;20049;-81
2021/03/19 10:03:52;;;;;;;53.90;24.70;;;4.30;99.90;;;;;;6244210;28;20049;-82
2021/03/19 10:06:54;;;;;;;40.30;24.30;;;4.30;99.90;;;;;;6244571;28;20114;-81
2021/03/19 10:09:57;;;;;;;36.55;24.08;;;4.30;99.90;;;;;;6244939;28;20133;-80
2021/03/19 10:13:15;;;;;;;39.50;25.85;;;4.30;99.90;;;;;;6244975;28;20045;-81
2021/03/19 10:16:24;;;;;;;36.25;23.05;;;4.40;99.90;;;;;;6243997;28;20136;-81
2021/03/19 10:19:25;;;;;;;35.78;23.60;;;4.50;99.90;;;;;;6244343;28;20045;-81
2021/03/19 10:22:34;;;;;;;39.58;22.70;;;4.70;99.90;;;;;;6243385;28;20045;-81
2021/03/19 10:25:38;;;;;;;34.72;22.20;;;5.00;99.90;;;;;;6245323;28;20086;-79
2021/03/19 10:28:40;;;;;;;30.35;20.42;;;5.00;99.90;;;;;;6244729;28;20093;-81
2021/03/19 10:31:48;;;;;;;30.98;19.30;;;5.10;99.90;;;;;;6223811;28;20057;-82
2021/03/19 10:34:54;;;;;;;30.85;19.33;;;5.10;99.90;;;;;;6220917;28;20057;-81
2021/03/19 10:38:02;;;;;;;27.52;19.50;;;5.30;99.90;;;;;;6221398;28;20062;-82
2021/03/19 10:41:10;;;;;;;25.65;18.00;;;5.60;99.90;;;;;;6222449;28;20050;-81
2021/03/19 10:44:16;;;;;;;26.95;17.35;;;5.60;99.90;;;;;;6244155;28;20080;-80
2021/03/19 10:47:21;;;;;;;17.40;12.75;;;5.30;99.90;;;;;;6225318;28;20055;-80
2021/03/19 10:50:25;;;;;;;12.85;9.38;;;;;;;;;;6216394;28;20263;-81
2021/03/19 10:53:40;;;;;;;12.75;8.98;;;4.90;99.90;;;;;;6217374;28;20051;-80
2021/03/19 10:56:49;;;;;;;15.88;10.40;;;5.10;99.90;;;;;;6216078;28;20061;-81
2021/03/19 10:59:52;;;;;;;13.40;10.18;;;5.30;99.90;;;;;;6213993;28;20049;-81
2021/03/19 11:02:55;;;;;;;11.63;8.80;;;5.40;99.90;;;;;;6218845;28;20054;-80
2021/03/19 11:05:57;;;;;;;12.55;9.55;;;5.20;99.90;;;;;;6219540;28;20047;-81
2021/03/19 11:09:10;;;;;;;14.75;12.30;;;5.00;99.90;;;;;;6216637;28;20471;-82
2021/03/19 11:12:23;;;;;;;17.10;11.23;;;5.00;99.90;;;;;;6242903;28;20068;-80
2021/03/19 11:15:37;;;;;;;12.73;9.85;;;5.00;99.90;;;;;;6226171;28;20076;-80
2021/03/19 11:18:42;;;;;;;13.23;10.23;;;5.00;99.90;;;;;;6215397;28;20424;-81
2021/03/19 11:21:46;;;;;;;12.95;10.48;;;5.10;99.90;;;;;;6219922;28;20046;-80
2021/03/19 11:24:47;;;;;;;14.15;11.23;;;5.40;99.90;;;;;;6245402;28;20054;-81
2021/03/19 11:27:50;;;;;;;15.48;9.90;;;5.70;99.90;;;;;;6228407;28;20046;-81
2021/03/19 11:30:52;;;;;;;11.52;7.97;;;6.00;99.90;;;;;;6225531;28;20389;-87
2021/03/19 11:34:03;;;;;;;13.52;10.27;;;6.20;99.90;;;;;;6220695;28;20050;-81
2021/03/19 11:37:08;;;;;;;12.40;8.65;;;6.20;99.90;;;;;;6221689;28;20050;-81
2021/03/19 11:40:16;;;;;;;11.38;9.05;;;6.30;99.90;;;;;;6248287;28;20427;-82
2021/03/19 11:43:18;;;;;;;11.27;9.45;;;6.10;99.90;;;;;;6222642;28;20054;-82
2021/03/19 11:46:21;;;;;;;13.45;9.27;;;5.80;99.90;;;;;;6220470;28;20050;-80
2021/03/19 11:49:23;;;;;;;18.02;9.73;;;5.60;99.90;;;;;;6224139;28;20073;-80
2021/03/19 11:52:24;;;;;;;11.73;9.45;;;5.50;99.90;;;;;;6249126;28;20053;-82
2021/03/19 11:55:28;;;;;;;13.32;10.35;;;5.40;99.90;;;;;;6228042;28;20046;-79
2021/03/19 11:58:32;;;;;;;10.68;8.40;;;5.40;99.90;;;;;;6223470;28;20050;-79
2021/03/19 12:01:34;;;;;;;16.27;9.40;;;5.50;99.90;;;;;;6211741;28;20437;-79
2021/03/19 12:04:35;;;;;;;7.47;6.72;;;5.50;99.90;;;;;;6199036;28;20054;-80
2021/03/19 12:07:36;;;;;;;11.80;7.57;;;5.50;99.90;;;;;;6199587;28;20074;-81
2021/03/19 12:10:38;;;;;;;10.60;8.70;;;5.40;99.90;;;;;;6199583;28;20054;-81
2021/03/19 12:13:40;;;;;;;10.98;8.18;;;5.40;98.90;;;;;;6210730;28;20077;-80
2021/03/19 12:16:41;;;;;;;11.57;8.57;;;5.50;99.10;;;;;;6223077;28;20054;-80
2021/03/19 12:19:43;;;;;;;7.07;6.38;;;5.60;99.20;;;;;;6222871;28;20050;-80
2021/03/19 12:22:45;;;;;;;9.27;6.88;;;5.70;98.70;;;;;;6223123;28;20129;-80
2021/03/19 12:25:47;;;;;;;9.52;6.75;;;5.90;97.10;;;;;;6222083;28;20054;-81
2021/03/19 12:28:49;;;;;;;8.07;5.95;;;5.80;95.40;;;;;;6222445;28;20054;-80
2021/03/19 12:31:51;;;;;;;9.45;6.40;;;5.80;94.50;;;;;;6222626;28;20073;-80
2021/03/19 12:34:52;;;;;;;8.55;7.47;;;5.70;94.20;;;;;;6221320;28;20476;-80
2021/03/19 12:37:54;;;;;;;10.82;8.70;;;5.90;95.30;;;;;;6219958;28;20054;-79
2021/03/19 12:40:58;;;;;;;9.38;6.72;;;6.10;94.90;;;;;;6222672;28;20065;-80
2021/03/19 12:44:00;;;;;;;9.38;7.72;;;6.30;93.90;;;;;;6221204;28;20053;-80
2021/03/19 12:47:02;;;;;;;7.90;6.15;;;6.50;93.60;;;;;;6221868;28;20234;-81
2021/03/19 12:50:05;;;;;;;11.82;8.13;;;7.00;91.40;;;;;;6219791;28;20050;-80
2021/03/19 12:53:11;;;;;;;9.55;8.27;;;7.10;90.10;;;;;;6221476;28;20048;-79
2021/03/19 12:56:13;;;;;;;7.47;5.38;;;7.30;88.00;;;;;;6219342;28;20047;-80
2021/03/19 12:59:15;;;;;;;6.90;6.15;;;7.10;85.90;;;;;;6219567;28;20058;-80
2021/03/19 13:02:17;;;;;;;6.97;6.07;;;6.90;82.50;;;;;;6217901;28;20057;-80
2021/03/19 13:05:21;;;;;;;7.15;5.55;;;6.90;84.40;;;;;;6223693;28;20325;-79
2021/03/19 13:08:22;;;;;;;14.88;8.60;;;6.90;82.20;;;;;;6265666;28;20060;-80
2021/03/19 13:11:24;;;;;;;7.20;5.97;;;6.90;81.60;;;;;;6268248;28;20041;-81
2021/03/19 13:14:26;;;;;;;8.20;5.55;;;6.90;80.40;;;;;;6237510;28;20054;-80
2021/03/19 13:17:28;;;;;;;8.52;6.57;;;6.90;80.10;;;;;;6220161;28;20060;-79
2021/03/19 13:20:30;;;;;;;6.95;5.05;;;7.30;81.50;;;;;;6217035;28;20078;-80
2021/03/19 13:23:32;;;;;;;5.78;4.55;;;7.70;81.50;;;;;;6216667;28;20057;-79
2021/03/19 13:26:33;;;;;;;7.97;5.63;;;7.80;82.30;;;;;;6217984;28;20058;-80
2021/03/19 13:29:36;;;;;;;6.45;5.50;;;7.90;82.70;;;;;;6219192;28;20054;-80
2021/03/19 13:32:37;;;;;;;6.90;4.85;;;7.50;81.90;;;;;;6216866;28;20046;-79
2021/03/19 13:35:40;;;;;;;8.23;5.35;;;7.00;82.90;;;;;;6219784;28;20081;-80
2021/03/19 13:38:42;;;;;;;6.50;5.45;;;6.60;85.50;;;;;;6218270;28;20071;-79
2021/03/19 13:41:44;;;;;;;4.40;3.80;;;6.40;87.00;;;;;;6215715;28;20074;-79
2021/03/19 13:44:47;;;;;;;6.38;4.75;;;6.00;88.10;;;;;;6216073;28;20110;-80
2021/03/19 13:47:48;;;;;;;5.85;4.53;;;5.90;89.60;;;;;;6216696;28;20054;-80
2021/03/19 13:50:50;;;;;;;7.47;5.43;;;5.90;90.10;;;;;;6217538;28;20062;-80
2021/03/19 13:53:51;;;;;;;11.50;8.63;;;5.90;88.50;;;;;;6215281;28;20120;-79
2021/03/19 13:57:00;;;;;;;8.13;6.90;;;5.80;87.90;;;;;;6217127;28;20054;-79
2021/03/19 14:00:03;;;;;;;7.97;5.90;;;5.60;87.10;;;;;;6216802;28;20085;-79
2021/03/19 14:03:05;;;;;;;9.30;6.20;;;5.40;88.30;;;;;;6230163;28;20045;-80
2021/03/19 14:06:06;;;;;;;8.90;5.85;;;5.40;90.20;;;;;;6233241;28;20440;-79
2021/03/19 14:09:07;;;;;;;8.82;5.57;;;5.60;90.70;;;;;;6217564;28;20062;-79
2021/03/19 14:12:09;;;;;;;9.00;6.22;;;5.90;89.00;;;;;;6215453;28;20050;-80
2021/03/19 14:15:12;;;;;;;10.20;6.07;;;6.00;87.10;;;;;;6214382;28;20135;-79
2021/03/19 14:18:13;;;;;;;6.40;4.75;;;6.10;87.40;;;;;;6215206;28;20061;-80
2021/03/19 14:21:15;;;;;;;8.02;6.00;;;6.30;89.50;;;;;;6216526;28;20110;-79
2021/03/19 14:24:16;;;;;;;7.15;5.57;;;6.60;89.60;;;;;;6216657;28;20101;-80
2021/03/19 14:27:18;;;;;;;9.00;7.72;;;7.10;88.70;;;;;;6233625;28;20050;-80
2021/03/19 14:30:25;;;;;;;6.38;5.32;;;7.70;88.30;;;;;;6231122;28;20057;-81
2021/03/19 14:33:26;;;;;;;11.32;6.43;;;8.10;86.40;;;;;;6215285;28;20054;-79
2021/03/19 14:36:28;;;;;;;7.72;5.35;;;8.00;80.40;;;;;;6215554;28;20459;-80
2021/03/19 14:39:31;;;;;;;6.65;4.90;;;7.60;79.00;;;;;;6212803;28;20050;-78
2021/03/19 14:42:32;;;;;;;6.88;5.93;;;7.00;79.90;;;;;;6212515;28;20065;-78
2021/03/19 14:45:34;;;;;;;5.88;4.97;;;6.40;81.00;;;;;;6212312;28;20057;-79
2021/03/19 14:48:37;;;;;;;6.50;4.82;;;;;;;;;;6215809;28;20057;-78
2021/03/19 14:51:39;;;;;;;8.45;5.65;;;5.40;85.20;;;;;;6216260;28;20046;-81
2021/03/19 14:54:41;;;;;;;8.80;5.53;;;5.10;87.00;;;;;;6218876;28;20116;-80
2021/03/19 14:57:42;;;;;;;6.07;5.47;;;4.80;87.70;;;;;;6219320;28;20077;-82
2021/03/19 15:00:47;;;;;;;8.30;5.25;;;4.60;90.00;;;;;;6217130;28;20100;-78
2021/03/19 15:03:48;;;;;;;6.90;5.60;;;4.40;90.40;;;;;;6208627;28;20133;-80
2021/03/19 15:06:49;;;;;;;9.35;6.20;;;4.30;91.20;;;;;;6216864;28;20058;-77
2021/03/19 15:09:51;;;;;;;7.18;5.43;;;4.40;91.30;;;;;;6217627;28;20093;-81
2021/03/19 15:12:52;;;;;;;7.90;6.30;;;4.40;91.80;;;;;;6219148;28;20051;-80
2021/03/19 15:15:55;;;;;;;8.90;5.15;;;4.50;91.80;;;;;;6219746;28;20093;-81
2021/03/19 15:18:57;;;;;;;6.88;5.72;;;4.50;91.70;;;;;;6222429;28;20046;-78
2021/03/19 15:21:58;;;;;;;8.88;5.72;;;4.60;91.60;;;;;;6221878;28;20058;-79
2021/03/19 15:25:00;;;;;;;7.22;5.13;;;4.60;91.40;;;;;;6222229;28;20054;-82
2021/03/19 15:28:02;;;;;;;7.82;6.45;;;4.80;91.60;;;;;;6218123;28;20132;-80
2021/03/19 15:31:05;;;;;;;6.45;5.35;;;4.80;91.40;;;;;;6218535;28;20058;-81
2021/03/19 15:34:06;;;;;;;6.70;5.63;;;4.90;91.90;;;;;;6216075;28;20045;-81
2021/03/19 15:37:08;;;;;;;8.45;5.80;;;5.00;90.90;;;;;;6216677;28;20065;-81
2021/03/19 15:40:12;;;;;;;7.70;5.70;;;5.00;91.00;;;;;;6217864;28;20061;-79
2021/03/19 15:43:14;;;;;;;7.80;5.60;;;5.00;90.90;;;;;;6217365;28;20077;-81
2021/03/19 15:46:19;;;;;;;6.57;4.93;;;5.10;91.00;;;;;;6225150;28;20057;-81
2021/03/19 15:49:21;;;;;;;7.18;5.63;;;5.10;91.10;;;;;;6240560;28;20064;-81
2021/03/19 15:52:22;;;;;;;8.05;5.03;;;5.10;90.80;;;;;;6241501;28;20050;-80
2021/03/19 15:55:24;;;;;;;9.02;5.55;;;5.10;91.00;;;;;;6239190;28;20124;-81
2021/03/19 15:58:25;;;;;;;7.13;5.55;;;5.20;91.20;;;;;;6239647;28;20484;-80
2021/03/19 16:01:27;;;;;;;6.93;4.68;;;5.20;90.50;;;;;;6239606;28;20064;-80
2021/03/19 16:04:29;;;;;;;10.52;6.28;;;5.20;89.40;;;;;;6238719;28;20058;-81
2021/03/19 16:07:30;;;;;;;8.70;5.38;;;5.30;89.00;;;;;;6237457;28;20462;-80
2021/03/19 16:10:34;;;;;;;6.53;4.95;;;5.50;88.80;;;;;;6228617;28;20050;-81
2021/03/19 16:13:35;;;;;;;5.57;3.90;;;5.70;88.40;;;;;;6219007;28;20170;-80